Meath Environmental Platform

Observations

Time Sensor AQI SAQ Temp °C Hum % Pres Pa CO μg/m³ H₂S μg/m³ NO μg/m³ NO₂ μg/m³ O₃ μg/m³ SO₂ μg/m³ CO₂e PPM VOC PPM PM1 μg/m³ PM2.5 μg/m³ PM4 μg/m³ PM10 μg/m³ TPS µm
Tuesday 11 August 2026
10:02 Trim Market St 1 34.3 32 66,384 0 0 0.42 12.39 52.54 0 0.71 3.77 4.15
10:02 Trim Patrick St 1 28.2 44 69,151 0 0 1.03 9.3 0 7.72 2.86 8.37 9.21
10:01 Trim Patrick St 1 28.1 46 69,145 0 0 1.04 9.21 36.25 9.62 15.71 22.87 25.16
10:00 Trim Market St 1 34.1 32 66,368 0 0 0.43 11.2 67.72 0 0 2.67 2.93
10:00 Trim Patrick St 1 28 43 69,130 0 0 1.06 9.35 54.06 8.47 2 7.61 8.37
09:59 Trim Patrick St 1 27.9 45 69,138 0 0 1.06 9.25 52.88 8.66 2 7.51 8.26
09:58 Trim Patrick St 1 27.8 45 69,179 0 0 1.07 7.6 27.07 8.87 2.86 9.06 9.97
09:57 Trim Market St 1 33.8 33 66,353 0 0 0.46 10.81 58.24 0 0.71 3.2 3.52
09:57 Trim Patrick St 1 27.8 44 69,181 0 0 1.08 9.53 66.82 8.25 2.86 7.57 8.32
09:56 Trim Market St 1 33.6 33 66,317 0 0 0.47 11.98 47.81 0 0.71 3.19 3.5
09:56 Trim Patrick St 1 27.7 46 69,181 0 0 1.08 7.72 24.45 8.65 2.86 8.2 9.02
09:55 Trim Patrick St 1 27.7 45 69,183 0 0 1.08 8.73 36.53 8.05 2.86 8.26 9.08
09:53 Trim Market St 1 33.2 34 66,250 0 0 0.54 10.14 55.41 0 0 2.6 2.86
09:53 Trim Patrick St 1 27.5 44 69,161 0 0 1.11 8.65 56.87 9.23 2 7.55 8.3
09:52 Trim Market St 1 33.1 34 66,242 0 0 0.55 11.84 50.67 0 0 3.66 4.03
09:52 Trim Patrick St 1 27.5 44 69,153 0 0 1.11 9.48 45.4 7.03 3.71 8.34 9.18
09:51 Trim Patrick St 1 27.5 47 69,171 0 0 1.11 5.45 34.46 8.61 2.86 7.36 8.1
09:50 Trim Patrick St 1 27.4 46 69,167 0 0 1.12 4.24 29.07 7.86 3.71 8.98 9.88
09:49 Trim Patrick St 1 27.4 44 69,191 0 0 1.12 8.8 33.53 7.85 2 7.54 8.29
09:46 Trim Patrick St 1 27.3 45 69,206 0 0 1.13 9.79 39.99 8.28 2 6.7 7.37